Craig, AK

9:02 PM AKDT on August 01, 2015 (GMT -0800)
MARITIME | | Change Station
CLOSE
Current Station
Personal Weather Station
Location: Haines, AK
Elevation: 0 ft
Nearby Weather Stations

Elev 0 ft 59.20 °N, 135.30 °W | Updated 16 hours ago

Partly Cloudy
Partly Cloudy
54 °F
Feels Like 54 °F
N
5
Wind Variable Wind from NW
Gusts mph

Today
High -- | Low -- °F
--% Chance of Precip.
Yesterday
High -- | Low -- °F
Precip. -- in
4:59 AM 9:03 PM
Waning Gibbous, 96% visible
Pressure 30.11 in
Visibility 10.0 miles
Clouds Scattered Clouds 1800 ft
Mostly Cloudy 5000 ft
Dew Point 51 °F
Humidity 88%
Rainfall in
Snow Depth Not available.
UV 1 out of 12
Pollen Not available.
Air Quality Not available.
Flu Activity Not available.
METAR PAAP 020256Z 18005KT 10SM SCT018 BKN050 18/10 A3011 RMK LAST NO SPECI

More Conditions Fewer Conditions

Pressure 30.11 in
Visibility 10.0 miles
Clouds Scattered Clouds 1800 ft
Mostly Cloudy 5000 ft
Dew Point 51 °F
Humidity 88%
Rainfall in
Snow Depth Not available.
UV 1 out of 12
Pollen Not available.
Air Quality Not available.
Flu Activity Not available.
METAR PAAP 020256Z 18005KT 10SM SCT018 BKN050 18/10 A3011 RMK LAST NO SPECI

More Conditions Fewer Conditions

10-Day Weather Forecast

×

Almanac

Astronomy

Aug. 01, 2015 Rise Set
Actual Time
Civil Twilight
Nautical Twilight
Astronomical Twilight
Moon
Length of Visible Light
Length of Day
Tomorrow will be .
, % of the Moon is Illuminated

Today's Extremes

State Highs State Lows

Community

WunderPhotos

Upload Photos

1,843,190 photos uploaded!

WunderBlogs® & News

Nearby

Air Quality

  Air Quality AQ Index Pollutant
Not available.

Snow Depth

Station Depth Elevation

Earthquake Activity

City Distance Mag. Time & Date
Minimum magnitude displayed is 2.5.

Coastal Water Temperatures

Place Temperature

Stations

Nearby Weather Stations

Station Location Temp. Windchill Dew Point Humidity Wind Precip. Elev Updated Type